createdAt,value
2023-01-12T00:02:22.410Z,1.80
2023-01-12T00:07:28.856Z,1.83
2023-01-12T00:12:30.595Z,2.00
2023-01-12T00:17:37.413Z,1.87
2023-01-12T00:22:41.509Z,2.17
2023-01-12T00:27:49.033Z,2.63
2023-01-12T00:32:55.568Z,3.00
2023-01-12T00:37:57.296Z,2.77
2023-01-12T00:43:20.137Z,2.27
2023-01-12T00:48:24.314Z,2.30
2023-01-12T00:53:26.048Z,3.00
2023-01-12T00:58:28.857Z,3.47
2023-01-12T01:03:30.530Z,2.70
2023-01-12T01:08:39.351Z,2.53
2023-01-12T01:13:43.708Z,2.13
2023-01-12T01:18:45.918Z,2.63
2023-01-12T01:23:47.779Z,3.03
2023-01-12T01:28:53.115Z,2.77
2023-01-12T01:33:56.870Z,2.20
2023-01-12T01:38:59.987Z,2.53
2023-01-12T01:44:27.294Z,2.23
2023-01-12T01:49:49.457Z,2.23
2023-01-12T01:55:09.196Z,2.50
2023-01-12T02:00:12.647Z,4.03
2023-01-12T02:05:24.049Z,3.03
2023-01-12T02:10:32.238Z,3.33
2023-01-12T02:16:19.284Z,3.53
2023-01-12T02:21:41.862Z,2.90
2023-01-12T02:26:50.711Z,3.90
2023-01-12T02:32:21.400Z,4.23
2023-01-12T02:37:42.021Z,4.57
2023-01-12T02:43:05.249Z,3.97
2023-01-12T02:48:15.442Z,4.27
2023-01-12T02:53:43.153Z,3.93
2023-01-12T02:58:51.092Z,4.07
2023-01-12T03:04:00.872Z,2.90
2023-01-12T03:09:05.542Z,3.23
2023-01-12T03:14:11.107Z,3.20
2023-01-12T03:19:28.744Z,3.47
2023-01-12T03:24:48.579Z,3.77
2023-01-12T03:30:04.377Z,4.67
2023-01-12T03:35:08.736Z,4.43
2023-01-12T03:40:37.757Z,4.37
2023-01-12T03:45:48.157Z,4.30
2023-01-12T03:50:56.892Z,3.70
2023-01-12T03:56:04.912Z,3.93
2023-01-12T04:01:06.770Z,4.10
2023-01-12T04:06:11.307Z,3.63
2023-01-12T04:11:34.349Z,4.30
2023-01-12T04:16:37.731Z,5.30
2023-01-12T04:21:58.522Z,5.63
2023-01-12T04:27:00.522Z,5.33
2023-01-12T04:32:05.950Z,6.37
2023-01-12T04:37:07.617Z,5.90
2023-01-12T04:42:31.376Z,6.60
2023-01-12T04:47:33.929Z,6.73
2023-01-12T04:52:36.098Z,7.53
2023-01-12T04:57:40.336Z,7.37
2023-01-12T05:02:47.962Z,7.10
2023-01-12T05:08:08.316Z,5.40
2023-01-12T05:13:17.344Z,5.47
2023-01-12T05:18:24.828Z,6.43
2023-01-12T05:23:26.669Z,6.47
2023-01-12T05:28:31.237Z,6.17
2023-01-12T05:33:35.540Z,5.17
2023-01-12T05:38:38.161Z,4.40
2023-01-12T05:43:53.008Z,3.73
2023-01-12T05:48:56.324Z,4.17
2023-01-12T05:54:03.183Z,4.80
2023-01-12T05:59:07.394Z,4.00
2023-01-12T06:04:12.921Z,4.13
2023-01-12T06:09:17.493Z,4.10
2023-01-12T06:14:19.524Z,3.63
2023-01-12T06:19:21.263Z,2.10
2023-01-12T06:24:24.350Z,2.40
2023-01-12T06:29:26.171Z,1.70
2023-01-12T06:34:27.974Z,1.83
2023-01-12T06:39:30.887Z,1.70
2023-01-12T06:44:32.662Z,1.37
2023-01-12T06:49:36.721Z,2.00
2023-01-12T06:54:38.411Z,1.57
2023-01-12T06:59:42.642Z,1.60
2023-01-12T07:04:49.510Z,1.20
2023-01-12T07:09:51.263Z,1.90
2023-01-12T07:14:53.089Z,1.63
2023-01-12T07:20:00.099Z,1.40
2023-01-12T07:25:02.209Z,1.57
2023-01-12T07:30:09.024Z,1.07
2023-01-12T07:35:10.771Z,1.30
2023-01-12T07:40:15.014Z,1.67
2023-01-12T07:45:16.856Z,1.00
2023-01-12T07:50:25.270Z,1.30
2023-01-12T07:55:27.108Z,1.17
2023-01-12T08:00:30.099Z,1.10
2023-01-12T08:05:31.948Z,1.10
2023-01-12T08:10:39.457Z,1.30
2023-01-12T08:15:49.659Z,0.97
2023-01-12T08:20:52.039Z,1.30
2023-01-12T08:26:02.386Z,1.10
2023-01-12T08:31:09.897Z,1.10
2023-01-12T08:41:37.737Z,1.50
2023-01-12T08:46:40.527Z,1.43
2023-01-12T08:51:44.916Z,1.10
2023-01-12T08:56:51.289Z,0.87
2023-01-12T09:01:53.262Z,0.80
2023-01-12T09:06:55.556Z,0.77
2023-01-12T09:12:24.359Z,1.53
2023-01-12T09:17:26.815Z,1.70
2023-01-12T09:22:30.158Z,1.70
2023-01-12T09:27:31.952Z,1.47
2023-01-12T09:32:36.860Z,1.40
2023-01-12T09:37:43.573Z,1.40
2023-01-12T09:43:08.620Z,1.50
2023-01-12T09:48:19.357Z,2.10
2023-01-12T09:53:28.068Z,2.30
2023-01-12T09:58:45.107Z,2.23
2023-01-12T10:03:48.220Z,1.50
2023-01-12T10:08:56.028Z,2.43
2023-01-12T10:14:05.471Z,3.47
2023-01-12T10:19:19.467Z,3.00
2023-01-12T10:24:25.690Z,4.00
2023-01-12T10:29:32.036Z,4.00
2023-01-12T10:34:55.507Z,2.60
2023-01-12T10:40:01.891Z,2.67
2023-01-12T10:45:17.450Z,2.93
2023-01-12T10:50:28.147Z,1.90
2023-01-12T10:55:37.098Z,2.50
2023-01-12T11:00:39.423Z,2.87
2023-01-12T11:05:41.188Z,2.60
2023-01-12T11:10:45.594Z,2.40
2023-01-12T11:16:07.629Z,3.27
2023-01-12T11:21:13.925Z,2.30
2023-01-12T11:26:19.697Z,2.47
2023-01-12T11:31:25.663Z,2.80
2023-01-12T11:36:44.024Z,2.93
2023-01-12T11:42:05.844Z,2.60
2023-01-12T11:47:16.065Z,3.27
2023-01-12T11:52:17.862Z,3.23
2023-01-12T11:57:25.791Z,3.30
2023-01-12T12:02:39.407Z,3.10
2023-01-12T12:07:58.034Z,3.27
2023-01-12T12:13:18.037Z,3.10
2023-01-12T12:18:33.979Z,4.00
2023-01-12T12:23:41.742Z,3.83
2023-01-12T12:28:52.699Z,3.23
2023-01-12T12:34:25.478Z,4.10
2023-01-12T12:39:27.412Z,4.33
2023-01-12T12:44:57.855Z,4.00
2023-01-12T12:50:03.507Z,3.80
2023-01-12T12:55:11.661Z,3.87
2023-01-12T13:00:40.627Z,3.97
2023-01-12T13:05:45.350Z,3.77
2023-01-12T13:10:57.841Z,4.63
2023-01-12T13:16:31.852Z,4.00
2023-01-12T13:21:57.759Z,3.70
2023-01-12T13:27:01.226Z,2.80
2023-01-12T13:32:32.607Z,3.50
2023-01-12T13:37:57.729Z,2.70
2023-01-12T13:43:19.625Z,2.80
2023-01-12T13:48:24.747Z,3.08
2023-01-12T13:53:28.988Z,3.27
2023-01-12T13:58:42.163Z,2.40
2023-01-12T14:03:56.044Z,2.33
2023-01-12T14:09:25.139Z,1.80
2023-01-12T14:14:59.278Z,2.00
2023-01-12T14:20:04.183Z,3.07
2023-01-12T14:25:21.500Z,2.93
2023-01-12T14:30:27.626Z,2.80
2023-01-12T14:35:32.148Z,2.57
2023-01-12T14:40:37.186Z,2.77
2023-01-12T14:46:28.711Z,3.20
2023-01-12T14:51:39.811Z,2.93
2023-01-12T14:57:10.446Z,3.10
2023-01-12T15:02:14.764Z,3.50
2023-01-12T15:07:18.289Z,3.17
2023-01-12T15:12:29.152Z,2.70
2023-01-12T15:17:49.498Z,3.00
2023-01-12T15:23:10.852Z,2.90
2023-01-12T15:28:12.587Z,2.93
2023-01-12T15:33:15.466Z,3.20
2023-01-12T15:38:20.728Z,3.53
2023-01-12T15:43:23.081Z,3.17
2023-01-12T15:48:27.219Z,5.30
2023-01-12T15:53:36.554Z,3.47
2023-01-12T15:58:38.372Z,3.70
2023-01-12T16:04:09.583Z,4.10
2023-01-12T16:09:04.408Z,5.17
2023-01-12T16:14:08.924Z,6.30
2023-01-12T16:19:21.518Z,5.43
2023-01-12T16:24:26.932Z,7.17
2023-01-12T16:29:29.528Z,6.17
2023-01-12T16:34:34.524Z,6.73
2023-01-12T16:39:37.286Z,7.43
2023-01-12T16:44:41.650Z,7.13
2023-01-12T16:49:51.941Z,7.33
2023-01-12T16:54:56.234Z,9.23
2023-01-12T16:59:58.115Z,7.83
2023-01-12T17:05:04.826Z,7.80
2023-01-12T17:10:07.420Z,9.87
2023-01-12T17:15:14.225Z,8.63
2023-01-12T17:20:20.049Z,8.40
2023-01-12T17:25:22.749Z,9.87
2023-01-12T17:30:25.094Z,11.10
2023-01-12T17:35:27.738Z,9.37
2023-01-12T17:40:31.789Z,7.47
2023-01-12T17:45:33.671Z,7.63
2023-01-12T17:50:35.464Z,5.40
2023-01-12T17:55:48.217Z,5.23
2023-01-12T18:00:52.234Z,3.57
2023-01-12T18:06:06.783Z,4.40
2023-01-12T18:11:14.238Z,3.83
2023-01-12T18:16:18.717Z,4.13
2023-01-12T18:21:27.342Z,4.17
2023-01-12T18:26:35.743Z,2.60
2023-01-12T18:31:37.755Z,2.57
2023-01-12T18:36:44.385Z,2.77
2023-01-12T18:42:06.063Z,3.00
2023-01-12T18:47:27.440Z,1.47
2023-01-12T18:52:50.051Z,2.30
2023-01-12T18:57:59.623Z,3.63
2023-01-12T19:03:05.336Z,4.30
2023-01-12T19:08:33.376Z,5.57
2023-01-12T19:13:55.250Z,4.87
2023-01-12T19:18:57.978Z,9.70
2023-01-12T19:24:18.538Z,19.10
2023-01-12T19:29:22.583Z,6.17
2023-01-12T19:34:25.335Z,5.47
2023-01-12T19:39:49.490Z,6.33
2023-01-12T19:44:54.241Z,6.80
2023-01-12T19:49:56.470Z,7.60
2023-01-12T19:55:07.930Z,3.60
2023-01-12T20:00:15.454Z,5.20
2023-01-12T20:05:22.782Z,4.53
2023-01-12T20:10:25.113Z,3.33
2023-01-12T20:15:29.822Z,4.93
2023-01-12T20:20:31.810Z,5.13
2023-01-12T20:25:33.887Z,5.30
2023-01-12T20:30:38.313Z,5.70
2023-01-12T20:35:46.422Z,3.50
2023-01-12T20:40:48.277Z,5.00
2023-01-12T20:45:52.648Z,5.43
2023-01-12T20:50:58.854Z,5.33
2023-01-12T20:56:02.845Z,4.63
2023-01-12T21:01:12.563Z,4.90
2023-01-12T21:06:18.548Z,5.27
2023-01-12T21:11:21.556Z,5.20
2023-01-12T21:16:31.295Z,4.40
2023-01-12T21:21:35.654Z,4.87
2023-01-12T21:26:37.453Z,4.90
2023-01-12T21:31:45.145Z,5.60
2023-01-12T21:36:49.129Z,4.83
2023-01-12T21:42:09.213Z,5.00
2023-01-12T21:47:11.183Z,3.83
2023-01-12T21:52:15.233Z,3.00
2023-01-12T21:57:19.527Z,2.50
2023-01-12T22:02:24.231Z,3.20
2023-01-12T22:07:27.114Z,3.20
2023-01-12T22:12:35.776Z,2.90
2023-01-12T22:17:42.927Z,3.47
2023-01-12T22:22:45.039Z,3.00
2023-01-12T22:27:47.043Z,2.40
2023-01-12T22:32:54.407Z,2.33
2023-01-12T22:37:56.140Z,2.20
2023-01-12T22:43:16.445Z,1.80
2023-01-12T22:48:20.432Z,2.10
2023-01-12T22:53:24.890Z,2.13
2023-01-12T22:58:28.966Z,2.00
2023-01-12T23:03:33.131Z,2.50
2023-01-12T23:08:40.762Z,2.00
2023-01-12T23:13:45.390Z,2.10
2023-01-12T23:18:51.996Z,2.00
2023-01-12T23:24:01.412Z,2.10
2023-01-12T23:29:05.711Z,2.33
2023-01-12T23:34:09.705Z,1.93
2023-01-12T23:39:12.313Z,2.27
2023-01-12T23:44:16.380Z,1.73
2023-01-12T23:49:18.743Z,2.30
2023-01-12T23:54:20.635Z,1.50
2023-01-12T23:59:22.413Z,2.27
